createdAt,value
2023-02-02T00:01:58.662Z,100067.41
2023-02-02T00:04:33.702Z,100064.63
2023-02-02T00:07:03.008Z,100077.59
2023-02-02T00:09:32.439Z,100061.47
2023-02-02T00:12:01.602Z,100050.94
2023-02-02T00:14:30.466Z,100054.94
2023-02-02T00:16:58.379Z,100055.59
2023-02-02T00:19:32.316Z,100053.00
2023-02-02T00:21:59.531Z,100041.59
2023-02-02T00:24:26.810Z,100043.19
2023-02-02T00:26:59.857Z,100023.47
2023-02-02T00:29:31.133Z,100042.44
2023-02-02T00:31:58.260Z,100023.03
2023-02-02T00:34:26.001Z,100016.44
2023-02-02T00:36:53.716Z,100019.50
2023-02-02T00:39:26.183Z,100023.56
2023-02-02T00:41:54.230Z,100027.28
2023-02-02T00:44:39.879Z,100033.00
2023-02-02T00:47:07.029Z,100026.28
2023-02-02T00:49:34.095Z,100037.06
2023-02-02T00:52:01.073Z,100041.41
2023-02-02T00:54:28.530Z,100031.56
2023-02-02T00:56:55.511Z,100034.56
2023-02-02T00:59:22.423Z,100042.53
2023-02-02T01:01:49.614Z,100049.28
2023-02-02T01:04:16.592Z,100009.63
2023-02-02T01:06:43.550Z,100029.22
2023-02-02T01:09:10.716Z,100026.47
2023-02-02T01:11:37.660Z,100034.13
2023-02-02T01:14:05.990Z,100031.63
2023-02-02T01:16:33.099Z,100037.25
2023-02-02T01:19:00.102Z,100026.38
2023-02-02T01:21:27.123Z,100025.44
2023-02-02T01:23:53.988Z,100028.56
2023-02-02T01:26:21.105Z,100027.41
2023-02-02T01:28:48.195Z,100022.94
2023-02-02T01:31:19.141Z,100039.84
2023-02-02T01:33:48.493Z,100028.22
2023-02-02T01:36:26.070Z,100029.97
2023-02-02T01:38:52.965Z,100038.94
2023-02-02T01:41:24.776Z,100054.56
2023-02-02T01:44:05.024Z,100044.28
2023-02-02T01:46:35.948Z,100056.78
2023-02-02T01:49:13.267Z,100042.19
2023-02-02T01:52:00.480Z,100054.03
2023-02-02T01:54:38.138Z,100056.78
2023-02-02T01:57:40.855Z,100054.47
2023-02-02T02:00:14.006Z,100066.13
2023-02-02T02:02:46.585Z,100068.72
2023-02-02T02:05:21.498Z,100063.72
2023-02-02T02:07:51.946Z,100065.66
2023-02-02T02:10:19.301Z,100086.53
2023-02-02T02:12:48.396Z,100092.66
2023-02-02T02:15:34.260Z,100085.72
2023-02-02T02:18:23.757Z,100090.81
2023-02-02T02:21:45.702Z,100101.81
2023-02-02T02:25:21.746Z,100108.56
2023-02-02T02:28:23.113Z,100106.72
2023-02-02T02:31:00.281Z,100127.44
2023-02-02T02:34:04.951Z,100122.34
2023-02-02T02:37:11.924Z,100117.72
2023-02-02T02:40:06.885Z,100125.47
2023-02-02T02:42:42.604Z,100135.28
2023-02-02T02:45:12.576Z,100133.06
2023-02-02T02:47:42.113Z,100128.06
2023-02-02T02:50:12.690Z,100139.16
2023-02-02T02:52:43.067Z,100138.44
2023-02-02T02:55:11.660Z,100155.47
2023-02-02T02:58:14.045Z,100148.44
2023-02-02T03:01:09.363Z,100154.53
2023-02-02T03:04:10.731Z,100155.16
2023-02-02T03:07:05.294Z,100156.94
2023-02-02T03:09:40.591Z,100162.28
2023-02-02T03:12:08.110Z,100167.09
2023-02-02T03:14:41.353Z,100175.03
2023-02-02T03:17:08.686Z,100165.78
2023-02-02T03:19:36.280Z,100186.50
2023-02-02T03:22:03.650Z,100182.06
2023-02-02T03:24:33.760Z,100191.59
2023-02-02T03:27:07.169Z,100197.69
2023-02-02T03:29:34.447Z,100201.47
2023-02-02T03:32:01.582Z,100221.19
2023-02-02T03:34:28.884Z,100200.34
2023-02-02T03:36:58.842Z,100211.84
2023-02-02T03:39:26.080Z,100214.59
2023-02-02T03:41:55.883Z,100217.19
2023-02-02T03:44:25.531Z,100235.38
2023-02-02T03:46:59.031Z,100229.03
2023-02-02T03:49:28.784Z,100239.59
2023-02-02T03:51:55.926Z,100242.09
2023-02-02T03:54:22.962Z,100255.69
2023-02-02T03:56:51.404Z,100260.16
2023-02-02T03:59:18.620Z,100274.72
2023-02-02T04:01:47.961Z,100270.72
2023-02-02T04:04:15.752Z,100269.78
2023-02-02T04:06:42.767Z,100282.75
2023-02-02T04:09:09.856Z,100285.50
2023-02-02T04:11:36.783Z,100286.97
2023-02-02T04:14:03.868Z,100284.97
2023-02-02T04:16:34.756Z,100289.88
2023-02-02T04:19:01.774Z,100276.72
2023-02-02T04:21:28.677Z,100293.00
2023-02-02T04:23:57.113Z,100295.69
2023-02-02T04:26:27.132Z,100298.28
2023-02-02T04:28:54.373Z,100304.41
2023-02-02T04:31:21.424Z,100304.50
2023-02-02T04:33:48.389Z,100305.34
2023-02-02T04:36:16.612Z,100322.34
2023-02-02T04:38:53.631Z,100316.78
2023-02-02T04:41:22.183Z,100319.00
2023-02-02T04:43:49.793Z,100328.53
2023-02-02T04:46:17.086Z,100335.03
2023-02-02T04:48:44.099Z,100346.16
2023-02-02T04:51:14.373Z,100351.88
2023-02-02T04:53:42.641Z,100353.84
2023-02-02T04:56:16.251Z,100354.94
2023-02-02T04:58:45.579Z,100358.75
2023-02-02T05:01:19.820Z,100366.38
2023-02-02T05:03:49.100Z,100374.94
2023-02-02T05:06:17.798Z,100380.47
2023-02-02T05:08:48.948Z,100377.09
2023-02-02T05:11:22.259Z,100382.84
2023-02-02T05:13:55.423Z,100397.22
2023-02-02T05:16:24.200Z,100408.97
2023-02-02T05:18:57.019Z,100405.69
2023-02-02T05:21:26.018Z,100401.31
2023-02-02T05:23:53.261Z,100391.53
2023-02-02T05:26:26.421Z,100410.03
2023-02-02T05:28:54.059Z,100421.16
2023-02-02T05:31:21.525Z,100434.44
2023-02-02T05:33:51.409Z,100425.41
2023-02-02T05:36:18.702Z,100418.63
2023-02-02T05:38:45.703Z,100438.22
2023-02-02T05:41:12.826Z,100436.09
2023-02-02T05:43:47.730Z,100443.78
2023-02-02T05:46:14.873Z,100450.72
2023-02-02T05:48:41.969Z,100458.41
2023-02-02T05:51:29.875Z,100469.25
2023-02-02T05:53:57.143Z,100470.59
2023-02-02T05:56:24.217Z,100465.66
2023-02-02T05:58:51.251Z,100473.63
2023-02-02T06:01:26.868Z,100488.50
2023-02-02T06:03:56.893Z,100483.31
2023-02-02T06:06:24.033Z,100489.50
2023-02-02T06:08:50.953Z,100520.47
2023-02-02T06:11:19.405Z,100492.69
2023-02-02T06:13:46.714Z,100502.13
2023-02-02T06:16:14.003Z,100514.31
2023-02-02T06:18:41.286Z,100522.25
2023-02-02T06:21:08.479Z,100522.84
2023-02-02T06:23:40.714Z,100515.38
2023-02-02T06:26:08.239Z,100526.34
2023-02-02T06:28:37.680Z,100529.59
2023-02-02T06:31:11.599Z,100538.28
2023-02-02T06:33:38.879Z,100546.81
2023-02-02T06:36:07.607Z,100542.94
2023-02-02T06:38:34.573Z,100540.91
2023-02-02T06:41:03.212Z,100552.44
2023-02-02T06:43:31.440Z,100558.47
2023-02-02T06:45:59.002Z,100552.56
2023-02-02T06:48:27.258Z,100562.81
2023-02-02T06:50:54.408Z,100569.19
2023-02-02T06:53:24.950Z,100568.59
2023-02-02T06:55:57.531Z,100578.25
2023-02-02T06:58:24.610Z,100581.59
2023-02-02T07:00:52.008Z,100583.81
2023-02-02T07:03:21.403Z,100590.38
2023-02-02T07:05:51.462Z,100601.19
2023-02-02T07:08:18.382Z,100607.19
2023-02-02T07:11:13.127Z,100611.84
2023-02-02T07:13:32.450Z,100619.22
2023-02-02T07:16:02.755Z,100617.09
2023-02-02T07:18:32.442Z,100623.81
2023-02-02T07:21:01.112Z,100626.69
2023-02-02T07:23:30.492Z,100642.91
2023-02-02T07:26:07.073Z,100649.00
2023-02-02T07:28:34.939Z,100641.16
2023-02-02T07:31:20.910Z,100647.19
2023-02-02T07:33:49.025Z,100654.09
2023-02-02T07:36:20.360Z,100661.66
2023-02-02T07:38:50.373Z,100655.38
2023-02-02T07:41:18.359Z,100668.66
2023-02-02T07:43:48.658Z,100665.72
2023-02-02T07:46:18.047Z,100666.81
2023-02-02T07:48:48.968Z,100674.25
2023-02-02T07:51:18.451Z,100659.34
2023-02-02T07:53:53.407Z,100675.50
2023-02-02T07:56:30.408Z,100667.19
2023-02-02T07:58:59.159Z,100674.13
2023-02-02T08:01:28.401Z,100676.72
2023-02-02T08:04:00.483Z,100683.06
2023-02-02T08:06:37.928Z,100685.25
2023-02-02T08:09:08.662Z,100687.97
2023-02-02T08:11:39.668Z,100690.75
2023-02-02T08:14:07.330Z,100696.91
2023-02-02T08:16:36.922Z,100699.72
2023-02-02T08:19:04.029Z,100707.81
2023-02-02T08:21:34.893Z,100702.25
2023-02-02T08:24:03.203Z,100709.03
2023-02-02T08:26:34.322Z,100714.78
2023-02-02T08:29:07.700Z,100721.31
2023-02-02T08:31:41.678Z,100718.41
2023-02-02T08:34:09.237Z,100728.16
2023-02-02T08:36:36.936Z,100716.50
2023-02-02T08:39:08.686Z,100729.00
2023-02-02T08:41:37.570Z,100728.78
2023-02-02T08:44:11.627Z,100725.78
2023-02-02T08:46:38.886Z,100736.22
2023-02-02T08:49:06.277Z,100748.53
2023-02-02T08:51:33.225Z,100745.50
2023-02-02T08:54:00.213Z,100749.44
2023-02-02T08:56:27.355Z,100751.75
2023-02-02T08:59:00.450Z,100751.50
2023-02-02T09:01:30.704Z,100757.06
2023-02-02T09:04:04.762Z,100764.53
2023-02-02T09:06:39.857Z,100764.00
2023-02-02T09:09:12.783Z,100773.38
2023-02-02T09:11:40.713Z,100774.09
2023-02-02T09:14:11.864Z,100777.16
2023-02-02T09:16:40.068Z,100780.94
2023-02-02T09:19:07.422Z,100782.19
2023-02-02T09:21:36.835Z,100779.06
2023-02-02T09:24:11.723Z,100785.78
2023-02-02T09:26:40.343Z,100783.19
2023-02-02T09:29:12.361Z,100780.66
2023-02-02T09:31:39.959Z,100794.41
2023-02-02T09:34:14.180Z,100800.31
2023-02-02T09:36:42.841Z,100800.78
2023-02-02T09:39:14.966Z,100807.25
2023-02-02T09:41:43.397Z,100806.78
2023-02-02T09:44:37.465Z,100809.28
2023-02-02T09:48:19.947Z,100813.47
2023-02-02T09:51:17.381Z,100810.59
2023-02-02T09:53:56.239Z,100815.72
2023-02-02T09:56:39.287Z,100820.16
2023-02-02T09:59:23.467Z,100825.25
2023-02-02T10:01:58.358Z,100824.47
2023-02-02T10:04:40.308Z,100815.00
2023-02-02T10:07:33.353Z,100821.69
2023-02-02T10:10:11.313Z,100827.44
2023-02-02T10:13:22.996Z,100835.13
2023-02-02T10:16:17.063Z,100822.72
2023-02-02T10:19:04.519Z,100835.91
2023-02-02T10:22:01.415Z,100855.22
2023-02-02T10:24:31.144Z,100861.22
2023-02-02T10:27:06.919Z,100860.00
2023-02-02T10:30:00.978Z,100855.38
2023-02-02T10:32:45.507Z,100873.28
2023-02-02T10:35:27.321Z,100860.81
2023-02-02T10:38:36.577Z,100864.34
2023-02-02T10:41:54.890Z,100863.94
2023-02-02T10:44:59.028Z,100864.94
2023-02-02T10:47:33.327Z,100871.13
2023-02-02T10:50:12.544Z,100871.34
2023-02-02T10:52:52.278Z,100859.06
2023-02-02T10:55:48.137Z,100871.75
2023-02-02T10:58:42.478Z,100864.94
2023-02-02T11:01:11.644Z,100871.72
2023-02-02T11:03:40.196Z,100877.66
2023-02-02T11:06:27.132Z,100874.41
2023-02-02T11:09:09.221Z,100879.75
2023-02-02T11:11:45.359Z,100891.81
2023-02-02T11:14:46.141Z,100901.22
2023-02-02T11:17:26.537Z,100929.78
2023-02-02T11:19:58.289Z,100921.28
2023-02-02T11:22:29.013Z,100926.69
2023-02-02T11:25:07.511Z,100927.78
2023-02-02T11:27:42.506Z,100929.88
2023-02-02T11:30:39.216Z,100929.94
2023-02-02T11:33:33.845Z,100943.25
2023-02-02T11:36:21.128Z,100954.78
2023-02-02T11:39:09.615Z,100965.66
2023-02-02T11:41:37.521Z,100970.16
2023-02-02T11:44:06.519Z,100975.66
2023-02-02T11:46:38.619Z,100976.44
2023-02-02T11:49:19.009Z,100976.03
2023-02-02T11:52:04.783Z,100970.53
2023-02-02T11:54:37.104Z,100978.94
2023-02-02T11:57:10.328Z,100980.63
2023-02-02T11:59:45.839Z,100975.41
2023-02-02T12:02:27.681Z,100981.28
2023-02-02T12:05:15.592Z,100976.94
2023-02-02T12:07:44.450Z,100980.28
2023-02-02T12:10:32.999Z,100981.84
2023-02-02T12:13:46.072Z,100994.69
2023-02-02T12:16:36.910Z,101001.50
2023-02-02T12:19:31.459Z,100987.22
2023-02-02T12:22:31.398Z,100996.31
2023-02-02T12:25:34.219Z,100991.75
2023-02-02T12:28:42.206Z,101001.69
2023-02-02T12:31:46.641Z,101003.19
2023-02-02T12:35:06.081Z,101005.34
2023-02-02T12:38:11.719Z,101015.22
2023-02-02T12:41:07.775Z,101014.63
2023-02-02T12:43:58.825Z,101012.66
2023-02-02T12:46:48.660Z,101015.84
2023-02-02T12:49:58.735Z,101017.00
2023-02-02T12:53:17.011Z,101024.16
2023-02-02T12:56:54.939Z,101021.19
2023-02-02T13:00:00.368Z,101027.00
2023-02-02T13:03:16.063Z,101032.94
2023-02-02T13:06:31.371Z,101036.50
2023-02-02T13:09:14.170Z,101036.81
2023-02-02T13:11:55.931Z,101043.19
2023-02-02T13:14:45.548Z,101049.75
2023-02-02T13:17:43.902Z,101053.66
2023-02-02T13:20:53.259Z,101066.97
2023-02-02T13:23:32.695Z,101064.50
2023-02-02T13:26:16.449Z,101076.28
2023-02-02T13:29:10.460Z,101088.00
2023-02-02T13:32:19.631Z,101086.47
2023-02-02T13:35:19.359Z,101095.56
2023-02-02T13:38:20.340Z,101105.81
2023-02-02T13:40:59.297Z,101120.41
2023-02-02T13:43:57.312Z,101116.53
2023-02-02T13:47:21.787Z,101128.28
2023-02-02T13:49:58.116Z,101129.75
2023-02-02T13:53:34.460Z,101135.66
2023-02-02T13:56:25.990Z,101150.22
2023-02-02T13:59:08.518Z,101160.41
2023-02-02T14:01:36.365Z,101165.09
2023-02-02T14:04:04.805Z,101161.81
2023-02-02T14:06:56.845Z,101162.00
2023-02-02T14:09:31.509Z,101175.03
2023-02-02T14:12:10.930Z,101172.13
2023-02-02T14:14:40.007Z,101181.13
2023-02-02T14:17:19.756Z,101182.63
2023-02-02T14:19:59.760Z,101187.63
2023-02-02T14:22:48.647Z,101192.03
2023-02-02T14:25:33.878Z,101191.91
2023-02-02T14:28:33.630Z,101204.28
2023-02-02T14:31:43.415Z,101214.66
2023-02-02T14:34:44.405Z,101214.34
2023-02-02T14:37:34.835Z,101226.38
2023-02-02T14:40:11.068Z,101237.97
2023-02-02T14:43:28.531Z,101257.88
2023-02-02T14:46:13.594Z,101259.63
2023-02-02T14:49:03.963Z,101264.69
2023-02-02T14:51:34.722Z,101277.34
2023-02-02T14:54:18.128Z,101281.16
2023-02-02T14:56:49.973Z,101286.59
2023-02-02T14:59:34.620Z,101287.69
2023-02-02T15:02:15.979Z,101296.81
2023-02-02T15:05:38.733Z,101302.59
2023-02-02T15:08:29.132Z,101308.47
2023-02-02T15:11:23.119Z,101317.16
2023-02-02T15:14:07.022Z,101321.44
2023-02-02T15:16:38.598Z,101325.53
2023-02-02T15:19:28.038Z,101333.09
2023-02-02T15:22:04.212Z,101341.72
2023-02-02T15:24:36.152Z,101341.22
2023-02-02T15:27:08.696Z,101347.13
2023-02-02T15:29:49.131Z,101345.66
2023-02-02T15:32:27.206Z,101361.81
2023-02-02T15:35:04.833Z,101360.34
2023-02-02T15:37:41.719Z,101359.72
2023-02-02T15:40:21.255Z,101368.84
2023-02-02T15:43:05.577Z,101367.69
2023-02-02T15:45:52.784Z,101383.25
2023-02-02T15:48:23.723Z,101379.41
2023-02-02T15:50:57.277Z,101388.41
2023-02-02T15:53:47.421Z,101397.19
2023-02-02T15:56:29.882Z,101400.09
2023-02-02T15:58:59.908Z,101403.81
2023-02-02T16:01:33.409Z,101410.09
2023-02-02T16:04:33.785Z,101415.66
2023-02-02T16:07:02.550Z,101430.47
2023-02-02T16:09:35.697Z,101429.84
2023-02-02T16:12:05.916Z,101439.94
2023-02-02T16:14:38.464Z,101445.34
2023-02-02T16:17:23.331Z,101452.91
2023-02-02T16:19:57.029Z,101454.81
2023-02-02T16:22:26.157Z,101458.75
2023-02-02T16:24:58.181Z,101466.34
2023-02-02T16:27:28.957Z,101476.09
2023-02-02T16:30:15.631Z,101480.72
2023-02-02T16:32:45.647Z,101484.34
2023-02-02T16:35:39.174Z,101488.00
2023-02-02T16:38:35.924Z,101496.84
2023-02-02T16:41:29.331Z,101502.94
2023-02-02T16:43:56.385Z,101505.00
2023-02-02T16:46:47.874Z,101517.31
2023-02-02T16:49:23.047Z,101514.13
2023-02-02T16:52:18.142Z,101520.03
2023-02-02T16:54:56.591Z,101523.00
2023-02-02T16:57:30.500Z,101528.16
2023-02-02T17:00:07.029Z,101529.06
2023-02-02T17:02:45.690Z,101528.47
2023-02-02T17:05:29.367Z,101536.09
2023-02-02T17:08:05.602Z,101539.59
2023-02-02T17:10:39.505Z,101544.59
2023-02-02T17:13:40.844Z,101542.16
2023-02-02T17:16:16.084Z,101556.06
2023-02-02T17:18:43.518Z,101554.31
2023-02-02T17:21:19.704Z,101558.78
2023-02-02T17:23:46.892Z,101554.59
2023-02-02T17:26:14.090Z,101565.75
2023-02-02T17:28:43.049Z,101564.81
2023-02-02T17:31:18.192Z,101571.75
2023-02-02T17:33:45.269Z,101572.63
2023-02-02T17:36:15.315Z,101572.78
2023-02-02T17:38:42.241Z,101575.47
2023-02-02T17:41:12.449Z,101578.03
2023-02-02T17:43:39.667Z,101587.53
2023-02-02T17:46:12.307Z,101592.81
2023-02-02T17:48:39.622Z,101592.78
2023-02-02T17:51:16.830Z,101598.84
2023-02-02T17:53:45.288Z,101596.31
2023-02-02T17:56:12.368Z,101605.75
2023-02-02T17:58:42.202Z,101605.03
2023-02-02T18:01:12.137Z,101607.72
2023-02-02T18:03:43.017Z,101603.63
2023-02-02T18:06:11.827Z,101601.09
2023-02-02T18:08:38.771Z,101606.34
2023-02-02T18:11:05.902Z,101603.75
2023-02-02T18:13:33.112Z,101605.56
2023-02-02T18:16:01.409Z,101601.47
2023-02-02T18:18:30.803Z,101599.78
2023-02-02T18:20:58.894Z,101601.72
2023-02-02T18:23:26.358Z,101601.16
2023-02-02T18:25:53.393Z,101606.69
2023-02-02T18:28:23.842Z,101601.00
2023-02-02T18:30:50.957Z,101605.16
2023-02-02T18:33:19.654Z,101603.47
2023-02-02T18:35:48.480Z,101605.16
2023-02-02T18:38:15.881Z,101607.59
2023-02-02T18:40:43.949Z,101605.09
2023-02-02T18:43:11.047Z,101605.94
2023-02-02T18:45:38.054Z,101604.41
2023-02-02T18:48:05.601Z,101600.25
2023-02-02T18:50:32.540Z,101602.66
2023-02-02T18:52:59.448Z,101608.69
2023-02-02T18:55:26.757Z,101615.47
2023-02-02T18:57:53.979Z,101613.81
2023-02-02T19:00:23.555Z,101614.00
2023-02-02T19:02:52.599Z,101606.72
2023-02-02T19:05:38.550Z,101621.06
2023-02-02T19:08:07.818Z,101610.31
2023-02-02T19:10:37.815Z,101616.94
2023-02-02T19:13:20.296Z,101617.84
2023-02-02T19:15:49.652Z,101612.94
2023-02-02T19:18:23.970Z,101620.13
2023-02-02T19:20:52.555Z,101622.91
2023-02-02T19:23:23.560Z,101618.56
2023-02-02T19:25:56.424Z,101622.34
2023-02-02T19:28:25.260Z,101632.00
2023-02-02T19:31:01.871Z,101632.94
2023-02-02T19:33:52.201Z,101628.84
2023-02-02T19:36:27.793Z,101631.13
2023-02-02T19:39:25.355Z,101637.25
2023-02-02T19:41:56.581Z,101636.44
2023-02-02T19:44:26.091Z,101636.19
2023-02-02T19:46:56.679Z,101637.38
2023-02-02T19:49:35.998Z,101632.25
2023-02-02T19:52:04.424Z,101631.53
2023-02-02T19:54:41.380Z,101632.88
2023-02-02T19:57:27.929Z,101631.81
2023-02-02T19:59:55.224Z,101640.13
2023-02-02T20:02:41.243Z,101639.19
2023-02-02T20:05:11.134Z,101640.75
2023-02-02T20:07:41.540Z,101643.13
2023-02-02T20:10:46.071Z,101640.56
2023-02-02T20:13:23.304Z,101638.06
2023-02-02T20:16:03.284Z,101637.06
2023-02-02T20:18:48.537Z,101639.34
2023-02-02T20:21:46.271Z,101642.31
2023-02-02T20:24:45.363Z,101637.81
2023-02-02T20:27:23.208Z,101639.34
2023-02-02T20:29:53.614Z,101637.38
2023-02-02T20:32:40.847Z,101639.06
2023-02-02T20:35:42.777Z,101633.03
2023-02-02T20:38:34.788Z,101637.38
2023-02-02T20:41:02.329Z,101644.19
2023-02-02T20:43:29.362Z,101637.31
2023-02-02T20:45:56.411Z,101640.72
2023-02-02T20:48:25.590Z,101640.97
2023-02-02T20:50:52.604Z,101636.66
2023-02-02T20:53:19.607Z,101634.94
2023-02-02T20:55:46.601Z,101636.72
2023-02-02T20:58:13.637Z,101634.94
2023-02-02T21:00:40.742Z,101628.06
2023-02-02T21:03:07.771Z,101626.81
2023-02-02T21:05:34.734Z,101624.50
2023-02-02T21:08:01.749Z,101622.97
2023-02-02T21:10:29.023Z,101625.25
2023-02-02T21:12:56.205Z,101619.38
2023-02-02T21:15:23.530Z,101614.81
2023-02-02T21:17:50.475Z,101612.09
2023-02-02T21:20:18.362Z,101608.75
2023-02-02T21:22:45.676Z,101606.38
2023-02-02T21:25:12.878Z,101604.00
2023-02-02T21:27:44.424Z,101606.56
2023-02-02T21:30:13.967Z,101597.00
2023-02-02T21:32:44.059Z,101598.81
2023-02-02T21:35:11.758Z,101599.84
2023-02-02T21:37:40.579Z,101589.56
2023-02-02T21:40:18.902Z,101603.16
2023-02-02T21:42:49.682Z,101593.16
2023-02-02T21:45:22.676Z,101600.53
2023-02-02T21:47:58.663Z,101590.91
2023-02-02T21:50:33.791Z,101589.78
2023-02-02T21:53:27.149Z,101590.63
2023-02-02T21:56:00.209Z,101593.00
2023-02-02T21:58:38.482Z,101593.75
2023-02-02T22:01:41.122Z,101585.44
2023-02-02T22:04:31.125Z,101583.66
2023-02-02T22:07:13.896Z,101585.88
2023-02-02T22:09:44.935Z,101577.31
2023-02-02T22:12:25.418Z,101579.94
2023-02-02T22:14:57.307Z,101568.00
2023-02-02T22:17:37.462Z,101570.50
2023-02-02T22:20:36.780Z,101569.50
2023-02-02T22:23:04.143Z,101564.13
2023-02-02T22:25:35.294Z,101555.97
2023-02-02T22:28:44.627Z,101560.81
2023-02-02T22:31:13.961Z,101555.56
2023-02-02T22:33:40.966Z,101557.16
2023-02-02T22:36:08.722Z,101554.41
2023-02-02T22:38:35.666Z,101561.00
2023-02-02T22:41:03.140Z,101564.00
2023-02-02T22:43:32.320Z,101563.00
2023-02-02T22:45:59.368Z,101563.31
2023-02-02T22:48:26.326Z,101567.91
2023-02-02T22:50:55.419Z,101565.75
2023-02-02T22:53:22.509Z,101572.38
2023-02-02T22:55:59.184Z,101565.41
2023-02-02T22:58:26.313Z,101563.47
2023-02-02T23:00:53.237Z,101569.38
2023-02-02T23:03:20.420Z,101565.75
2023-02-02T23:05:47.419Z,101566.47
2023-02-02T23:08:14.643Z,101560.47
2023-02-02T23:10:41.627Z,101554.44
2023-02-02T23:13:09.003Z,101553.38
2023-02-02T23:15:36.341Z,101563.31
2023-02-02T23:18:03.984Z,101554.22
2023-02-02T23:20:31.029Z,101549.56
2023-02-02T23:22:57.945Z,101542.78
2023-02-02T23:25:25.119Z,101551.47
2023-02-02T23:27:52.135Z,101541.94
2023-02-02T23:30:21.985Z,101537.69
2023-02-02T23:32:49.146Z,101540.81
2023-02-02T23:35:19.999Z,101535.41
2023-02-02T23:37:49.634Z,101528.41
2023-02-02T23:40:17.106Z,101515.47
2023-02-02T23:42:44.020Z,101512.91
2023-02-02T23:45:10.969Z,101512.03
2023-02-02T23:47:39.792Z,101499.44
2023-02-02T23:50:09.379Z,101501.91
2023-02-02T23:52:37.294Z,101498.25
2023-02-02T23:55:05.368Z,101502.41
2023-02-02T23:57:33.768Z,101493.19
